sensor_id;sensor_type;location;lat;lon;timestamp;P1;durP1;ratioP1;P2;durP2;ratioP2
76259;SDS011;65076;52.362;6.588;2023-07-16T00:00:31;5.50;;;3.33;;
76259;SDS011;65076;52.362;6.588;2023-07-16T00:02:59;7.10;;;3.50;;
76259;SDS011;65076;52.362;6.588;2023-07-16T00:05:27;6.55;;;4.10;;
76259;SDS011;65076;52.362;6.588;2023-07-16T00:07:55;6.93;;;3.92;;
76259;SDS011;65076;52.362;6.588;2023-07-16T00:10:23;5.28;;;3.53;;
76259;SDS011;65076;52.362;6.588;2023-07-16T00:12:52;5.35;;;3.20;;
76259;SDS011;65076;52.362;6.588;2023-07-16T00:15:20;6.78;;;3.63;;
76259;SDS011;65076;52.362;6.588;2023-07-16T00:17:48;10.25;;;3.90;;
76259;SDS011;65076;52.362;6.588;2023-07-16T00:20:17;7.72;;;3.75;;
76259;SDS011;65076;52.362;6.588;2023-07-16T00:22:44;10.25;;;3.97;;
76259;SDS011;65076;52.362;6.588;2023-07-16T00:25:13;8.43;;;4.25;;
76259;SDS011;65076;52.362;6.588;2023-07-16T00:27:41;5.80;;;3.88;;
76259;SDS011;65076;52.362;6.588;2023-07-16T00:30:10;6.43;;;3.88;;
76259;SDS011;65076;52.362;6.588;2023-07-16T00:32:39;6.70;;;4.18;;
76259;SDS011;65076;52.362;6.588;2023-07-16T00:35:07;7.40;;;4.10;;
76259;SDS011;65076;52.362;6.588;2023-07-16T00:37:36;6.38;;;4.28;;
76259;SDS011;65076;52.362;6.588;2023-07-16T00:42:36;6.68;;;3.75;;
76259;SDS011;65076;52.362;6.588;2023-07-16T00:45:04;6.47;;;2.75;;
76259;SDS011;65076;52.362;6.588;2023-07-16T00:47:43;11.95;;;3.58;;
76259;SDS011;65076;52.362;6.588;2023-07-16T00:50:12;8.05;;;2.25;;
76259;SDS011;65076;52.362;6.588;2023-07-16T00:52:44;4.78;;;1.67;;
76259;SDS011;65076;52.362;6.588;2023-07-16T00:55:12;10.57;;;2.42;;
76259;SDS011;65076;52.362;6.588;2023-07-16T00:57:40;6.70;;;2.15;;
76259;SDS011;65076;52.362;6.588;2023-07-16T01:00:10;7.43;;;2.47;;
76259;SDS011;65076;52.362;6.588;2023-07-16T01:02:40;5.93;;;2.40;;
76259;SDS011;65076;52.362;6.588;2023-07-16T01:05:09;4.18;;;1.75;;
76259;SDS011;65076;52.362;6.588;2023-07-16T01:07:37;5.68;;;1.77;;
76259;SDS011;65076;52.362;6.588;2023-07-16T01:10:14;5.13;;;2.17;;
76259;SDS011;65076;52.362;6.588;2023-07-16T01:12:42;6.90;;;2.10;;
76259;SDS011;65076;52.362;6.588;2023-07-16T01:15:10;5.63;;;2.28;;
76259;SDS011;65076;52.362;6.588;2023-07-16T01:17:40;7.70;;;2.25;;
76259;SDS011;65076;52.362;6.588;2023-07-16T01:20:08;7.00;;;2.20;;
76259;SDS011;65076;52.362;6.588;2023-07-16T01:25:34;4.20;;;1.90;;
76259;SDS011;65076;52.362;6.588;2023-07-16T01:28:27;4.43;;;1.90;;
76259;SDS011;65076;52.362;6.588;2023-07-16T01:31:18;7.95;;;2.05;;
76259;SDS011;65076;52.362;6.588;2023-07-16T01:33:49;5.45;;;2.08;;
76259;SDS011;65076;52.362;6.588;2023-07-16T01:36:19;4.80;;;2.05;;
76259;SDS011;65076;52.362;6.588;2023-07-16T01:38:50;6.07;;;2.35;;
76259;SDS011;65076;52.362;6.588;2023-07-16T01:41:18;5.15;;;2.10;;
76259;SDS011;65076;52.362;6.588;2023-07-16T01:43:46;3.78;;;1.88;;
76259;SDS011;65076;52.362;6.588;2023-07-16T01:46:14;6.05;;;2.42;;
76259;SDS011;65076;52.362;6.588;2023-07-16T01:48:44;6.75;;;2.47;;
76259;SDS011;65076;52.362;6.588;2023-07-16T01:51:13;4.90;;;2.08;;
76259;SDS011;65076;52.362;6.588;2023-07-16T01:53:41;4.95;;;2.33;;
76259;SDS011;65076;52.362;6.588;2023-07-16T01:56:09;3.25;;;2.08;;
76259;SDS011;65076;52.362;6.588;2023-07-16T01:58:37;5.20;;;2.50;;
76259;SDS011;65076;52.362;6.588;2023-07-16T02:01:05;6.63;;;2.40;;
76259;SDS011;65076;52.362;6.588;2023-07-16T02:03:33;4.88;;;2.33;;
76259;SDS011;65076;52.362;6.588;2023-07-16T02:06:03;4.28;;;2.60;;
76259;SDS011;65076;52.362;6.588;2023-07-16T02:08:31;4.10;;;2.63;;
76259;SDS011;65076;52.362;6.588;2023-07-16T02:10:59;6.25;;;2.80;;
76259;SDS011;65076;52.362;6.588;2023-07-16T02:13:27;7.60;;;2.63;;
76259;SDS011;65076;52.362;6.588;2023-07-16T02:15:55;3.55;;;2.55;;
76259;SDS011;65076;52.362;6.588;2023-07-16T02:18:23;5.53;;;2.35;;
76259;SDS011;65076;52.362;6.588;2023-07-16T02:20:51;5.90;;;2.65;;
76259;SDS011;65076;52.362;6.588;2023-07-16T02:23:21;4.47;;;2.42;;
76259;SDS011;65076;52.362;6.588;2023-07-16T02:25:49;5.75;;;2.47;;
76259;SDS011;65076;52.362;6.588;2023-07-16T02:28:17;7.00;;;2.63;;
76259;SDS011;65076;52.362;6.588;2023-07-16T02:30:45;5.22;;;2.63;;
76259;SDS011;65076;52.362;6.588;2023-07-16T02:33:13;5.90;;;2.95;;
76259;SDS011;65076;52.362;6.588;2023-07-16T02:35:45;4.75;;;2.63;;
76259;SDS011;65076;52.362;6.588;2023-07-16T02:38:14;6.93;;;3.00;;
76259;SDS011;65076;52.362;6.588;2023-07-16T02:40:44;6.50;;;2.75;;
76259;SDS011;65076;52.362;6.588;2023-07-16T02:43:13;6.95;;;2.80;;
76259;SDS011;65076;52.362;6.588;2023-07-16T02:45:42;8.40;;;2.78;;
76259;SDS011;65076;52.362;6.588;2023-07-16T02:48:11;6.95;;;2.60;;
76259;SDS011;65076;52.362;6.588;2023-07-16T02:50:39;3.88;;;2.00;;
76259;SDS011;65076;52.362;6.588;2023-07-16T02:53:08;7.85;;;2.55;;
76259;SDS011;65076;52.362;6.588;2023-07-16T02:55:36;7.65;;;3.00;;
76259;SDS011;65076;52.362;6.588;2023-07-16T02:58:06;9.35;;;3.17;;
76259;SDS011;65076;52.362;6.588;2023-07-16T03:00:34;5.32;;;2.00;;
76259;SDS011;65076;52.362;6.588;2023-07-16T03:03:02;5.47;;;2.38;;
76259;SDS011;65076;52.362;6.588;2023-07-16T03:05:33;4.85;;;1.95;;
76259;SDS011;65076;52.362;6.588;2023-07-16T03:08:01;4.80;;;2.30;;
76259;SDS011;65076;52.362;6.588;2023-07-16T03:10:30;8.82;;;2.67;;
76259;SDS011;65076;52.362;6.588;2023-07-16T03:12:58;6.30;;;2.97;;
76259;SDS011;65076;52.362;6.588;2023-07-16T03:15:27;6.07;;;2.05;;
76259;SDS011;65076;52.362;6.588;2023-07-16T03:17:55;7.53;;;2.30;;
76259;SDS011;65076;52.362;6.588;2023-07-16T03:20:23;6.55;;;2.58;;
76259;SDS011;65076;52.362;6.588;2023-07-16T03:22:51;8.32;;;3.10;;
76259;SDS011;65076;52.362;6.588;2023-07-16T03:25:20;8.32;;;2.03;;
76259;SDS011;65076;52.362;6.588;2023-07-16T03:30:20;6.90;;;2.45;;
76259;SDS011;65076;52.362;6.588;2023-07-16T03:32:49;6.20;;;2.35;;
76259;SDS011;65076;52.362;6.588;2023-07-16T03:35:19;8.07;;;2.60;;
76259;SDS011;65076;52.362;6.588;2023-07-16T03:37:51;5.53;;;1.73;;
76259;SDS011;65076;52.362;6.588;2023-07-16T03:40:22;6.03;;;2.33;;
76259;SDS011;65076;52.362;6.588;2023-07-16T03:42:53;6.93;;;2.25;;
76259;SDS011;65076;52.362;6.588;2023-07-16T03:45:23;5.72;;;2.20;;
76259;SDS011;65076;52.362;6.588;2023-07-16T03:47:53;6.78;;;2.20;;
76259;SDS011;65076;52.362;6.588;2023-07-16T03:52:50;5.28;;;2.55;;
76259;SDS011;65076;52.362;6.588;2023-07-16T03:55:19;5.38;;;2.50;;
76259;SDS011;65076;52.362;6.588;2023-07-16T03:57:47;6.03;;;2.42;;
76259;SDS011;65076;52.362;6.588;2023-07-16T04:00:15;9.40;;;2.08;;
76259;SDS011;65076;52.362;6.588;2023-07-16T04:02:46;6.60;;;2.17;;
76259;SDS011;65076;52.362;6.588;2023-07-16T04:05:15;8.73;;;2.47;;
76259;SDS011;65076;52.362;6.588;2023-07-16T04:07:46;4.88;;;3.25;;
76259;SDS011;65076;52.362;6.588;2023-07-16T04:10:14;5.13;;;2.17;;
76259;SDS011;65076;52.362;6.588;2023-07-16T04:12:42;8.07;;;2.60;;
76259;SDS011;65076;52.362;6.588;2023-07-16T04:15:09;3.55;;;1.98;;
76259;SDS011;65076;52.362;6.588;2023-07-16T04:17:38;5.90;;;1.90;;
76259;SDS011;65076;52.362;6.588;2023-07-16T04:20:06;3.95;;;1.67;;
76259;SDS011;65076;52.362;6.588;2023-07-16T04:22:37;4.72;;;2.03;;
76259;SDS011;65076;52.362;6.588;2023-07-16T04:25:05;3.22;;;1.83;;
76259;SDS011;65076;52.362;6.588;2023-07-16T04:27:33;5.55;;;2.20;;
76259;SDS011;65076;52.362;6.588;2023-07-16T04:30:02;6.18;;;2.03;;
76259;SDS011;65076;52.362;6.588;2023-07-16T04:32:31;6.28;;;2.20;;
76259;SDS011;65076;52.362;6.588;2023-07-16T04:34:59;6.30;;;2.30;;
76259;SDS011;65076;52.362;6.588;2023-07-16T04:37:27;3.15;;;1.52;;
76259;SDS011;65076;52.362;6.588;2023-07-16T04:39:57;4.80;;;2.08;;
76259;SDS011;65076;52.362;6.588;2023-07-16T04:42:25;2.88;;;1.35;;
76259;SDS011;65076;52.362;6.588;2023-07-16T04:44:53;6.30;;;1.92;;
76259;SDS011;65076;52.362;6.588;2023-07-16T04:47:21;8.13;;;2.38;;
76259;SDS011;65076;52.362;6.588;2023-07-16T04:49:49;7.00;;;1.83;;
76259;SDS011;65076;52.362;6.588;2023-07-16T04:52:17;4.40;;;1.60;;
76259;SDS011;65076;52.362;6.588;2023-07-16T04:54:45;8.50;;;2.40;;
76259;SDS011;65076;52.362;6.588;2023-07-16T04:57:15;4.95;;;1.70;;
76259;SDS011;65076;52.362;6.588;2023-07-16T04:59:43;4.65;;;2.40;;
76259;SDS011;65076;52.362;6.588;2023-07-16T05:02:11;6.75;;;2.25;;
76259;SDS011;65076;52.362;6.588;2023-07-16T05:04:41;5.25;;;1.92;;
76259;SDS011;65076;52.362;6.588;2023-07-16T05:07:10;5.53;;;3.13;;
76259;SDS011;65076;52.362;6.588;2023-07-16T05:09:39;5.55;;;2.17;;
76259;SDS011;65076;52.362;6.588;2023-07-16T05:12:07;4.90;;;2.10;;
76259;SDS011;65076;52.362;6.588;2023-07-16T05:14:44;6.03;;;2.15;;
76259;SDS011;65076;52.362;6.588;2023-07-16T05:17:14;5.30;;;2.10;;
76259;SDS011;65076;52.362;6.588;2023-07-16T05:19:42;4.43;;;1.85;;
76259;SDS011;65076;52.362;6.588;2023-07-16T05:22:10;5.22;;;2.65;;
76259;SDS011;65076;52.362;6.588;2023-07-16T05:24:38;7.35;;;2.47;;
76259;SDS011;65076;52.362;6.588;2023-07-16T05:27:06;9.85;;;2.55;;
76259;SDS011;65076;52.362;6.588;2023-07-16T05:29:34;5.13;;;2.30;;
76259;SDS011;65076;52.362;6.588;2023-07-16T05:32:04;5.15;;;2.28;;
76259;SDS011;65076;52.362;6.588;2023-07-16T05:34:33;6.20;;;2.50;;
76259;SDS011;65076;52.362;6.588;2023-07-16T05:37:01;7.63;;;2.47;;
76259;SDS011;65076;52.362;6.588;2023-07-16T05:39:29;5.28;;;2.72;;
76259;SDS011;65076;52.362;6.588;2023-07-16T05:41:58;7.50;;;2.28;;
76259;SDS011;65076;52.362;6.588;2023-07-16T05:44:28;8.88;;;3.08;;
76259;SDS011;65076;52.362;6.588;2023-07-16T05:46:56;7.28;;;2.67;;
76259;SDS011;65076;52.362;6.588;2023-07-16T05:49:26;9.13;;;3.03;;
76259;SDS011;65076;52.362;6.588;2023-07-16T05:51:54;6.35;;;2.60;;
76259;SDS011;65076;52.362;6.588;2023-07-16T05:54:23;6.53;;;2.83;;
76259;SDS011;65076;52.362;6.588;2023-07-16T05:56:51;4.90;;;2.75;;
76259;SDS011;65076;52.362;6.588;2023-07-16T05:59:19;3.70;;;2.38;;
76259;SDS011;65076;52.362;6.588;2023-07-16T06:01:51;6.72;;;2.65;;
76259;SDS011;65076;52.362;6.588;2023-07-16T06:04:19;6.72;;;2.83;;
76259;SDS011;65076;52.362;6.588;2023-07-16T06:06:49;5.03;;;2.58;;
76259;SDS011;65076;52.362;6.588;2023-07-16T06:09:18;7.22;;;2.63;;
76259;SDS011;65076;52.362;6.588;2023-07-16T06:11:46;9.95;;;3.65;;
76259;SDS011;65076;52.362;6.588;2023-07-16T06:14:15;8.27;;;2.78;;
76259;SDS011;65076;52.362;6.588;2023-07-16T06:16:43;7.82;;;2.72;;
76259;SDS011;65076;52.362;6.588;2023-07-16T06:19:11;6.45;;;2.97;;
76259;SDS011;65076;52.362;6.588;2023-07-16T06:21:40;7.13;;;2.55;;
76259;SDS011;65076;52.362;6.588;2023-07-16T06:24:09;5.70;;;2.83;;
76259;SDS011;65076;52.362;6.588;2023-07-16T06:26:48;6.80;;;3.10;;
76259;SDS011;65076;52.362;6.588;2023-07-16T06:29:15;7.18;;;2.92;;
76259;SDS011;65076;52.362;6.588;2023-07-16T06:31:53;6.43;;;2.92;;
76259;SDS011;65076;52.362;6.588;2023-07-16T06:34:23;7.97;;;2.85;;
76259;SDS011;65076;52.362;6.588;2023-07-16T06:36:52;7.13;;;3.00;;
76259;SDS011;65076;52.362;6.588;2023-07-16T06:39:21;5.55;;;2.53;;
76259;SDS011;65076;52.362;6.588;2023-07-16T06:41:50;8.63;;;2.92;;
76259;SDS011;65076;52.362;6.588;2023-07-16T06:44:18;13.95;;;3.10;;
76259;SDS011;65076;52.362;6.588;2023-07-16T06:46:46;8.73;;;2.78;;
76259;SDS011;65076;52.362;6.588;2023-07-16T06:49:14;7.22;;;3.47;;
76259;SDS011;65076;52.362;6.588;2023-07-16T06:51:43;6.63;;;3.20;;
76259;SDS011;65076;52.362;6.588;2023-07-16T06:54:11;5.63;;;3.00;;
76259;SDS011;65076;52.362;6.588;2023-07-16T06:56:42;5.53;;;3.47;;
76259;SDS011;65076;52.362;6.588;2023-07-16T06:59:10;8.82;;;3.72;;
76259;SDS011;65076;52.362;6.588;2023-07-16T07:01:38;6.88;;;2.58;;
76259;SDS011;65076;52.362;6.588;2023-07-16T07:04:07;5.97;;;3.22;;
76259;SDS011;65076;52.362;6.588;2023-07-16T07:06:35;14.27;;;4.07;;
76259;SDS011;65076;52.362;6.588;2023-07-16T07:09:03;6.53;;;3.10;;
76259;SDS011;65076;52.362;6.588;2023-07-16T07:11:31;5.80;;;3.00;;
76259;SDS011;65076;52.362;6.588;2023-07-16T07:14:03;7.15;;;2.60;;
76259;SDS011;65076;52.362;6.588;2023-07-16T07:16:31;4.68;;;2.00;;
76259;SDS011;65076;52.362;6.588;2023-07-16T07:18:59;9.40;;;2.95;;
76259;SDS011;65076;52.362;6.588;2023-07-16T07:21:27;7.65;;;3.00;;
76259;SDS011;65076;52.362;6.588;2023-07-16T07:23:55;6.20;;;3.17;;
76259;SDS011;65076;52.362;6.588;2023-07-16T07:26:23;6.32;;;2.97;;
76259;SDS011;65076;52.362;6.588;2023-07-16T07:28:53;9.25;;;3.72;;
76259;SDS011;65076;52.362;6.588;2023-07-16T07:33:51;5.40;;;2.63;;
76259;SDS011;65076;52.362;6.588;2023-07-16T07:36:20;7.68;;;3.40;;
76259;SDS011;65076;52.362;6.588;2023-07-16T07:38:48;6.70;;;2.78;;
76259;SDS011;65076;52.362;6.588;2023-07-16T07:41:16;6.28;;;2.95;;
76259;SDS011;65076;52.362;6.588;2023-07-16T07:43:45;4.28;;;2.70;;
76259;SDS011;65076;52.362;6.588;2023-07-16T07:46:13;5.25;;;2.47;;
76259;SDS011;65076;52.362;6.588;2023-07-16T07:48:43;7.30;;;3.10;;
76259;SDS011;65076;52.362;6.588;2023-07-16T07:53:39;6.93;;;3.08;;
76259;SDS011;65076;52.362;6.588;2023-07-16T07:56:07;5.53;;;3.00;;
76259;SDS011;65076;52.362;6.588;2023-07-16T07:58:35;6.72;;;3.13;;
76259;SDS011;65076;52.362;6.588;2023-07-16T08:01:04;5.82;;;2.90;;
76259;SDS011;65076;52.362;6.588;2023-07-16T08:03:33;6.10;;;3.10;;
76259;SDS011;65076;52.362;6.588;2023-07-16T08:06:03;6.90;;;2.85;;
76259;SDS011;65076;52.362;6.588;2023-07-16T08:08:31;3.97;;;2.67;;
76259;SDS011;65076;52.362;6.588;2023-07-16T08:10:59;4.95;;;2.80;;
76259;SDS011;65076;52.362;6.588;2023-07-16T08:13:27;6.88;;;3.20;;
76259;SDS011;65076;52.362;6.588;2023-07-16T08:15:55;6.72;;;3.45;;
76259;SDS011;65076;52.362;6.588;2023-07-16T08:18:24;5.20;;;2.85;;
76259;SDS011;65076;52.362;6.588;2023-07-16T08:20:52;5.35;;;2.72;;
76259;SDS011;65076;52.362;6.588;2023-07-16T08:23:21;5.85;;;3.03;;
76259;SDS011;65076;52.362;6.588;2023-07-16T08:25:49;5.97;;;3.00;;
76259;SDS011;65076;52.362;6.588;2023-07-16T08:28:18;7.65;;;3.40;;
76259;SDS011;65076;52.362;6.588;2023-07-16T08:30:46;5.85;;;3.22;;
76259;SDS011;65076;52.362;6.588;2023-07-16T08:33:15;7.82;;;3.17;;
76259;SDS011;65076;52.362;6.588;2023-07-16T08:35:43;6.30;;;2.75;;
76259;SDS011;65076;52.362;6.588;2023-07-16T08:38:11;7.15;;;2.90;;
76259;SDS011;65076;52.362;6.588;2023-07-16T08:40:41;7.10;;;3.30;;
76259;SDS011;65076;52.362;6.588;2023-07-16T08:45:39;8.40;;;3.45;;
76259;SDS011;65076;52.362;6.588;2023-07-16T08:48:08;8.45;;;4.22;;
76259;SDS011;65076;52.362;6.588;2023-07-16T08:50:38;5.53;;;2.72;;
76259;SDS011;65076;52.362;6.588;2023-07-16T08:53:09;5.20;;;2.47;;
76259;SDS011;65076;52.362;6.588;2023-07-16T08:55:37;9.50;;;3.97;;
76259;SDS011;65076;52.362;6.588;2023-07-16T08:58:07;12.15;;;3.33;;
76259;SDS011;65076;52.362;6.588;2023-07-16T09:00:36;6.15;;;3.65;;
76259;SDS011;65076;52.362;6.588;2023-07-16T09:05:33;5.95;;;2.83;;
76259;SDS011;65076;52.362;6.588;2023-07-16T09:08:06;4.60;;;2.58;;
76259;SDS011;65076;52.362;6.588;2023-07-16T09:10:34;7.53;;;3.92;;
76259;SDS011;65076;52.362;6.588;2023-07-16T09:13:03;5.22;;;2.58;;
76259;SDS011;65076;52.362;6.588;2023-07-16T09:15:32;5.10;;;2.35;;
76259;SDS011;65076;52.362;6.588;2023-07-16T09:18:01;7.90;;;3.17;;
76259;SDS011;65076;52.362;6.588;2023-07-16T09:22:58;5.78;;;3.17;;
76259;SDS011;65076;52.362;6.588;2023-07-16T09:25:26;7.32;;;3.38;;
76259;SDS011;65076;52.362;6.588;2023-07-16T09:27:57;6.40;;;3.10;;
76259;SDS011;65076;52.362;6.588;2023-07-16T09:30:32;6.75;;;3.17;;
76259;SDS011;65076;52.362;6.588;2023-07-16T09:35:50;6.95;;;3.10;;
76259;SDS011;65076;52.362;6.588;2023-07-16T09:38:18;9.15;;;2.95;;
76259;SDS011;65076;52.362;6.588;2023-07-16T09:40:47;6.82;;;3.13;;
76259;SDS011;65076;52.362;6.588;2023-07-16T09:43:15;6.93;;;3.00;;
76259;SDS011;65076;52.362;6.588;2023-07-16T09:45:45;6.22;;;2.67;;
76259;SDS011;65076;52.362;6.588;2023-07-16T09:48:13;8.80;;;3.47;;
76259;SDS011;65076;52.362;6.588;2023-07-16T09:50:43;5.13;;;2.45;;
76259;SDS011;65076;52.362;6.588;2023-07-16T09:53:18;10.25;;;2.80;;
76259;SDS011;65076;52.362;6.588;2023-07-16T09:55:49;7.93;;;3.35;;
76259;SDS011;65076;52.362;6.588;2023-07-16T09:58:21;4.20;;;2.60;;
76259;SDS011;65076;52.362;6.588;2023-07-16T10:00:53;8.20;;;2.65;;
76259;SDS011;65076;52.362;6.588;2023-07-16T10:03:22;7.28;;;3.30;;
76259;SDS011;65076;52.362;6.588;2023-07-16T10:05:51;7.20;;;3.08;;
76259;SDS011;65076;52.362;6.588;2023-07-16T10:08:19;6.53;;;3.03;;
76259;SDS011;65076;52.362;6.588;2023-07-16T10:10:48;5.65;;;2.47;;
76259;SDS011;65076;52.362;6.588;2023-07-16T10:13:24;6.13;;;2.58;;
76259;SDS011;65076;52.362;6.588;2023-07-16T10:15:55;8.70;;;2.90;;
76259;SDS011;65076;52.362;6.588;2023-07-16T10:18:28;6.70;;;3.33;;
76259;SDS011;65076;52.362;6.588;2023-07-16T10:21:02;5.97;;;2.65;;
76259;SDS011;65076;52.362;6.588;2023-07-16T10:23:37;9.02;;;3.70;;
76259;SDS011;65076;52.362;6.588;2023-07-16T10:26:07;5.13;;;2.40;;
76259;SDS011;65076;52.362;6.588;2023-07-16T10:28:41;8.82;;;3.35;;
76259;SDS011;65076;52.362;6.588;2023-07-16T10:31:18;9.02;;;3.67;;
76259;SDS011;65076;52.362;6.588;2023-07-16T10:33:57;6.70;;;3.15;;
76259;SDS011;65076;52.362;6.588;2023-07-16T10:39:04;6.47;;;3.30;;
76259;SDS011;65076;52.362;6.588;2023-07-16T10:41:32;6.63;;;2.90;;
76259;SDS011;65076;52.362;6.588;2023-07-16T10:44:01;6.50;;;2.88;;
76259;SDS011;65076;52.362;6.588;2023-07-16T10:49:01;4.15;;;2.42;;
76259;SDS011;65076;52.362;6.588;2023-07-16T10:51:30;6.22;;;2.60;;
76259;SDS011;65076;52.362;6.588;2023-07-16T10:53:58;4.03;;;3.00;;
76259;SDS011;65076;52.362;6.588;2023-07-16T10:56:26;7.78;;;3.28;;
76259;SDS011;65076;52.362;6.588;2023-07-16T10:58:54;6.93;;;2.70;;
76259;SDS011;65076;52.362;6.588;2023-07-16T11:01:23;3.90;;;2.40;;
76259;SDS011;65076;52.362;6.588;2023-07-16T11:03:52;4.90;;;2.80;;
76259;SDS011;65076;52.362;6.588;2023-07-16T11:06:20;5.10;;;3.25;;
76259;SDS011;65076;52.362;6.588;2023-07-16T11:08:49;6.55;;;2.85;;
76259;SDS011;65076;52.362;6.588;2023-07-16T11:11:27;5.28;;;2.88;;
76259;SDS011;65076;52.362;6.588;2023-07-16T11:13:56;5.55;;;2.58;;
76259;SDS011;65076;52.362;6.588;2023-07-16T11:16:24;3.80;;;2.53;;
76259;SDS011;65076;52.362;6.588;2023-07-16T11:18:54;7.15;;;3.30;;
76259;SDS011;65076;52.362;6.588;2023-07-16T11:21:22;6.82;;;4.03;;
76259;SDS011;65076;52.362;6.588;2023-07-16T11:23:50;4.63;;;2.90;;
76259;SDS011;65076;52.362;6.588;2023-07-16T11:26:18;5.63;;;2.92;;
76259;SDS011;65076;52.362;6.588;2023-07-16T11:28:49;5.63;;;2.70;;
76259;SDS011;65076;52.362;6.588;2023-07-16T11:31:18;5.75;;;2.80;;
76259;SDS011;65076;52.362;6.588;2023-07-16T11:33:50;5.53;;;2.70;;
76259;SDS011;65076;52.362;6.588;2023-07-16T11:36:19;5.85;;;2.97;;
76259;SDS011;65076;52.362;6.588;2023-07-16T11:38:48;4.95;;;2.70;;
76259;SDS011;65076;52.362;6.588;2023-07-16T11:41:19;4.03;;;2.65;;
76259;SDS011;65076;52.362;6.588;2023-07-16T11:43:48;5.80;;;2.53;;
76259;SDS011;65076;52.362;6.588;2023-07-16T11:46:18;5.65;;;2.85;;
76259;SDS011;65076;52.362;6.588;2023-07-16T11:51:15;4.57;;;2.63;;
76259;SDS011;65076;52.362;6.588;2023-07-16T11:53:44;6.22;;;3.22;;
76259;SDS011;65076;52.362;6.588;2023-07-16T11:56:12;6.30;;;2.92;;
76259;SDS011;65076;52.362;6.588;2023-07-16T11:58:41;6.30;;;2.60;;
76259;SDS011;65076;52.362;6.588;2023-07-16T12:01:09;4.97;;;2.60;;
76259;SDS011;65076;52.362;6.588;2023-07-16T12:03:37;5.70;;;2.50;;
76259;SDS011;65076;52.362;6.588;2023-07-16T12:06:05;7.38;;;3.20;;
76259;SDS011;65076;52.362;6.588;2023-07-16T12:08:33;8.02;;;3.05;;
76259;SDS011;65076;52.362;6.588;2023-07-16T12:11:03;5.78;;;2.70;;
76259;SDS011;65076;52.362;6.588;2023-07-16T12:15:58;3.42;;;2.08;;
76259;SDS011;65076;52.362;6.588;2023-07-16T12:18:26;5.25;;;2.60;;
76259;SDS011;65076;52.362;6.588;2023-07-16T12:20:57;3.53;;;2.20;;
76259;SDS011;65076;52.362;6.588;2023-07-16T12:23:25;4.78;;;2.78;;
76259;SDS011;65076;52.362;6.588;2023-07-16T12:25:53;5.68;;;2.33;;
76259;SDS011;65076;52.362;6.588;2023-07-16T12:28:23;4.20;;;2.42;;
76259;SDS011;65076;52.362;6.588;2023-07-16T12:30:51;5.47;;;2.08;;
76259;SDS011;65076;52.362;6.588;2023-07-16T12:33:19;7.90;;;2.70;;
76259;SDS011;65076;52.362;6.588;2023-07-16T12:35:48;5.05;;;2.40;;
76259;SDS011;65076;52.362;6.588;2023-07-16T12:38:16;2.90;;;1.88;;
76259;SDS011;65076;52.362;6.588;2023-07-16T12:40:45;6.10;;;2.15;;
76259;SDS011;65076;52.362;6.588;2023-07-16T12:43:13;6.75;;;2.50;;
76259;SDS011;65076;52.362;6.588;2023-07-16T12:45:43;5.40;;;2.58;;
76259;SDS011;65076;52.362;6.588;2023-07-16T12:48:11;4.75;;;2.55;;
76259;SDS011;65076;52.362;6.588;2023-07-16T12:50:39;4.70;;;2.60;;
76259;SDS011;65076;52.362;6.588;2023-07-16T12:53:22;7.55;;;2.83;;
76259;SDS011;65076;52.362;6.588;2023-07-16T12:55:51;2.92;;;2.33;;
76259;SDS011;65076;52.362;6.588;2023-07-16T12:58:19;4.78;;;2.03;;
76259;SDS011;65076;52.362;6.588;2023-07-16T13:00:52;7.15;;;2.85;;
76259;SDS011;65076;52.362;6.588;2023-07-16T13:03:20;5.65;;;2.70;;
76259;SDS011;65076;52.362;6.588;2023-07-16T13:05:48;5.47;;;2.40;;
76259;SDS011;65076;52.362;6.588;2023-07-16T13:08:16;6.18;;;2.60;;
76259;SDS011;65076;52.362;6.588;2023-07-16T13:11:03;6.18;;;2.90;;
76259;SDS011;65076;52.362;6.588;2023-07-16T13:13:31;5.32;;;2.80;;
76259;SDS011;65076;52.362;6.588;2023-07-16T13:16:00;6.47;;;2.60;;
76259;SDS011;65076;52.362;6.588;2023-07-16T13:18:28;4.97;;;2.47;;
76259;SDS011;65076;52.362;6.588;2023-07-16T13:20:57;7.03;;;2.67;;
76259;SDS011;65076;52.362;6.588;2023-07-16T13:23:32;6.85;;;2.28;;
76259;SDS011;65076;52.362;6.588;2023-07-16T13:26:01;5.40;;;2.78;;
76259;SDS011;65076;52.362;6.588;2023-07-16T13:28:29;4.25;;;2.42;;
76259;SDS011;65076;52.362;6.588;2023-07-16T13:30:57;5.90;;;2.72;;
76259;SDS011;65076;52.362;6.588;2023-07-16T13:33:27;8.57;;;2.90;;
76259;SDS011;65076;52.362;6.588;2023-07-16T13:36:00;3.25;;;2.22;;
76259;SDS011;65076;52.362;6.588;2023-07-16T13:38:30;5.75;;;2.67;;
76259;SDS011;65076;52.362;6.588;2023-07-16T13:40:58;5.95;;;2.28;;
76259;SDS011;65076;52.362;6.588;2023-07-16T13:43:29;4.50;;;2.85;;
76259;SDS011;65076;52.362;6.588;2023-07-16T13:45:58;8.68;;;2.85;;
76259;SDS011;65076;52.362;6.588;2023-07-16T13:48:27;5.45;;;2.72;;
76259;SDS011;65076;52.362;6.588;2023-07-16T13:51:05;5.50;;;2.78;;
76259;SDS011;65076;52.362;6.588;2023-07-16T13:53:33;5.60;;;2.65;;
76259;SDS011;65076;52.362;6.588;2023-07-16T13:56:01;5.38;;;2.72;;
76259;SDS011;65076;52.362;6.588;2023-07-16T13:58:29;7.80;;;2.78;;
76259;SDS011;65076;52.362;6.588;2023-07-16T14:00:57;3.85;;;2.25;;
76259;SDS011;65076;52.362;6.588;2023-07-16T14:03:25;5.80;;;2.88;;
76259;SDS011;65076;52.362;6.588;2023-07-16T14:08:23;6.28;;;3.08;;
76259;SDS011;65076;52.362;6.588;2023-07-16T14:10:51;4.13;;;2.10;;
76259;SDS011;65076;52.362;6.588;2023-07-16T14:13:19;4.70;;;2.42;;
76259;SDS011;65076;52.362;6.588;2023-07-16T14:15:48;3.47;;;2.80;;
76259;SDS011;65076;52.362;6.588;2023-07-16T14:18:16;4.45;;;3.05;;
76259;SDS011;65076;52.362;6.588;2023-07-16T14:20:45;7.15;;;2.85;;
76259;SDS011;65076;52.362;6.588;2023-07-16T14:23:13;5.47;;;2.60;;
76259;SDS011;65076;52.362;6.588;2023-07-16T14:25:41;5.75;;;2.97;;
76259;SDS011;65076;52.362;6.588;2023-07-16T14:28:10;5.18;;;2.35;;
76259;SDS011;65076;52.362;6.588;2023-07-16T14:30:38;5.43;;;2.33;;
76259;SDS011;65076;52.362;6.588;2023-07-16T14:33:07;5.00;;;3.03;;
76259;SDS011;65076;52.362;6.588;2023-07-16T14:35:35;5.93;;;2.95;;
76259;SDS011;65076;52.362;6.588;2023-07-16T14:38:05;6.30;;;2.80;;
76259;SDS011;65076;52.362;6.588;2023-07-16T14:43:03;4.25;;;2.30;;
76259;SDS011;65076;52.362;6.588;2023-07-16T14:45:32;5.43;;;2.08;;
76259;SDS011;65076;52.362;6.588;2023-07-16T14:48:01;5.07;;;2.67;;
76259;SDS011;65076;52.362;6.588;2023-07-16T14:50:31;4.53;;;2.17;;
76259;SDS011;65076;52.362;6.588;2023-07-16T14:52:59;2.90;;;1.85;;
76259;SDS011;65076;52.362;6.588;2023-07-16T14:55:28;3.85;;;1.83;;
76259;SDS011;65076;52.362;6.588;2023-07-16T14:57:56;3.63;;;2.00;;
76259;SDS011;65076;52.362;6.588;2023-07-16T15:00:24;3.60;;;1.90;;
76259;SDS011;65076;52.362;6.588;2023-07-16T15:02:53;2.70;;;1.60;;
76259;SDS011;65076;52.362;6.588;2023-07-16T15:05:21;4.55;;;2.20;;
76259;SDS011;65076;52.362;6.588;2023-07-16T15:07:49;4.38;;;2.22;;
76259;SDS011;65076;52.362;6.588;2023-07-16T15:10:18;3.47;;;2.05;;
76259;SDS011;65076;52.362;6.588;2023-07-16T15:12:47;3.25;;;1.35;;
76259;SDS011;65076;52.362;6.588;2023-07-16T15:15:15;2.53;;;1.80;;
76259;SDS011;65076;52.362;6.588;2023-07-16T15:17:43;4.13;;;1.60;;
76259;SDS011;65076;52.362;6.588;2023-07-16T15:20:12;5.13;;;2.38;;
76259;SDS011;65076;52.362;6.588;2023-07-16T15:22:40;4.35;;;1.88;;
76259;SDS011;65076;52.362;6.588;2023-07-16T15:25:08;3.38;;;2.00;;
76259;SDS011;65076;52.362;6.588;2023-07-16T15:27:38;2.25;;;1.60;;
76259;SDS011;65076;52.362;6.588;2023-07-16T15:30:10;3.95;;;2.42;;
76259;SDS011;65076;52.362;6.588;2023-07-16T15:32:39;7.30;;;1.67;;
76259;SDS011;65076;52.362;6.588;2023-07-16T15:35:08;5.40;;;2.15;;
76259;SDS011;65076;52.362;6.588;2023-07-16T15:37:36;3.00;;;1.77;;
76259;SDS011;65076;52.362;6.588;2023-07-16T15:40:11;3.90;;;1.80;;